createdAt,value
2022-08-18T00:00:03.293Z,0.00
2022-08-18T00:01:03.362Z,0.00
2022-08-18T00:02:02.393Z,0.00
2022-08-18T00:03:07.420Z,0.00
2022-08-18T00:04:03.742Z,0.00
2022-08-18T00:05:02.863Z,0.00
2022-08-18T00:06:02.710Z,0.00
2022-08-18T00:07:03.229Z,0.00
2022-08-18T00:08:02.663Z,0.00
2022-08-18T00:09:03.200Z,0.00
2022-08-18T00:10:02.886Z,0.00
2022-08-18T00:11:02.819Z,0.00
2022-08-18T00:12:02.820Z,0.00
2022-08-18T00:13:03.231Z,0.00
2022-08-18T00:14:02.992Z,0.00
2022-08-18T00:15:02.824Z,0.00
2022-08-18T00:16:02.787Z,0.00
2022-08-18T00:17:02.570Z,0.00
2022-08-18T00:18:02.532Z,0.00
2022-08-18T00:19:07.102Z,0.00
2022-08-18T00:20:02.774Z,0.00
2022-08-18T00:21:02.781Z,0.00
2022-08-18T00:22:02.706Z,0.00
2022-08-18T00:23:02.665Z,0.00
2022-08-18T00:24:02.994Z,0.00
2022-08-18T00:25:02.996Z,0.00
2022-08-18T00:26:02.986Z,0.00
2022-08-18T00:27:03.027Z,0.00
2022-08-18T00:28:02.904Z,0.00
2022-08-18T00:29:02.853Z,0.00
2022-08-18T00:30:03.294Z,0.00
2022-08-18T00:31:03.162Z,0.00
2022-08-18T00:32:03.131Z,0.00
2022-08-18T00:33:03.166Z,0.00
2022-08-18T00:34:03.130Z,0.00
2022-08-18T00:35:03.218Z,0.00
2022-08-18T00:36:03.188Z,0.00
2022-08-18T00:37:02.945Z,0.00
2022-08-18T00:38:02.702Z,0.00
2022-08-18T00:39:03.140Z,0.00
2022-08-18T00:40:03.153Z,0.00
2022-08-18T00:41:02.697Z,0.00
2022-08-18T00:42:03.336Z,0.00
2022-08-18T00:43:04.184Z,0.00
2022-08-18T00:44:03.404Z,0.00
2022-08-18T00:45:03.646Z,0.00
2022-08-18T00:46:03.617Z,0.00
2022-08-18T00:47:02.652Z,0.00
2022-08-18T00:48:02.884Z,0.00
2022-08-18T00:49:02.832Z,0.00
2022-08-18T00:50:02.905Z,0.00
2022-08-18T00:51:02.770Z,0.00
2022-08-18T00:52:02.806Z,0.00
2022-08-18T00:53:02.902Z,0.00
2022-08-18T00:54:02.903Z,0.00
2022-08-18T00:55:02.590Z,0.00
2022-08-18T00:56:03.109Z,0.00
2022-08-18T00:57:02.848Z,0.00
2022-08-18T00:58:02.798Z,0.00
2022-08-18T00:59:02.741Z,0.00
2022-08-18T01:00:02.675Z,0.00
2022-08-18T01:01:03.150Z,0.00
2022-08-18T01:02:02.897Z,0.00
2022-08-18T01:03:02.722Z,0.00
2022-08-18T01:04:02.610Z,0.00
2022-08-18T01:05:02.731Z,0.00
2022-08-18T01:06:02.713Z,0.00
2022-08-18T01:07:02.551Z,0.00
2022-08-18T01:08:02.317Z,0.00
2022-08-18T01:09:02.640Z,0.00
2022-08-18T01:10:02.619Z,0.00
2022-08-18T01:11:02.585Z,0.00
2022-08-18T01:12:44.358Z,0.00
2022-08-18T01:13:02.600Z,0.00
2022-08-18T01:14:02.272Z,0.00
2022-08-18T01:15:02.358Z,0.00
2022-08-18T01:16:02.401Z,0.00
2022-08-18T01:17:03.134Z,0.00
2022-08-18T01:18:02.855Z,0.00
2022-08-18T01:19:02.940Z,0.00
2022-08-18T01:20:03.124Z,0.00
2022-08-18T01:21:03.115Z,0.00
2022-08-18T01:22:02.896Z,0.00
2022-08-18T01:23:02.868Z,0.00
2022-08-18T01:24:02.802Z,0.00
2022-08-18T01:25:02.549Z,0.00
2022-08-18T01:26:02.961Z,0.00
2022-08-18T01:27:03.077Z,0.00
2022-08-18T01:28:03.085Z,0.00
2022-08-18T01:29:02.975Z,0.00
2022-08-18T01:30:02.660Z,0.00
2022-08-18T01:31:02.789Z,0.00
2022-08-18T01:32:02.505Z,0.00
2022-08-18T01:33:02.472Z,0.00
2022-08-18T01:34:02.213Z,0.00
2022-08-18T01:35:02.467Z,0.00
2022-08-18T01:36:02.454Z,0.00
2022-08-18T01:37:02.688Z,0.00
2022-08-18T01:38:02.962Z,0.00
2022-08-18T01:39:03.140Z,0.00
2022-08-18T01:41:23.293Z,0.00
2022-08-18T01:41:27.101Z,0.00
2022-08-18T01:42:02.547Z,0.00
2022-08-18T01:43:02.445Z,0.00
2022-08-18T01:44:02.432Z,0.00
2022-08-18T01:45:02.411Z,0.00
2022-08-18T01:46:02.391Z,0.00
2022-08-18T01:47:02.539Z,0.00
2022-08-18T01:48:03.210Z,0.00
2022-08-18T01:49:03.214Z,0.00
2022-08-18T01:50:03.046Z,0.00
2022-08-18T01:51:02.689Z,0.00
2022-08-18T01:52:03.348Z,0.00
2022-08-18T01:53:03.033Z,0.00
2022-08-18T01:54:02.974Z,0.00
2022-08-18T01:55:02.977Z,0.00
2022-08-18T01:56:02.917Z,0.00
2022-08-18T01:57:02.761Z,0.00
2022-08-18T01:58:02.158Z,0.00
2022-08-18T01:59:02.234Z,0.00
2022-08-18T02:00:02.214Z,0.00
2022-08-18T02:01:02.528Z,0.00
2022-08-18T02:02:03.265Z,0.00
2022-08-18T02:03:03.135Z,0.00
2022-08-18T02:04:31.169Z,0.00
2022-08-18T02:05:03.244Z,0.00
2022-08-18T02:06:03.056Z,0.00
2022-08-18T02:07:04.195Z,0.00
2022-08-18T02:08:02.675Z,0.00
2022-08-18T02:09:02.747Z,0.00
2022-08-18T02:10:02.833Z,0.00
2022-08-18T02:11:02.909Z,0.00
2022-08-18T02:12:03.729Z,0.00
2022-08-18T02:13:02.797Z,0.00
2022-08-18T02:14:03.231Z,0.00
2022-08-18T02:15:03.310Z,0.00
2022-08-18T02:16:02.944Z,0.00
2022-08-18T02:17:02.965Z,0.00
2022-08-18T02:18:02.433Z,0.00
2022-08-18T02:19:02.122Z,0.00
2022-08-18T02:20:02.646Z,0.00
2022-08-18T02:21:02.645Z,0.00
2022-08-18T02:22:03.134Z,0.00
2022-08-18T02:23:03.124Z,0.00
2022-08-18T02:24:02.970Z,0.00
2022-08-18T02:25:03.046Z,0.00
2022-08-18T02:26:03.272Z,0.00
2022-08-18T02:27:03.140Z,0.00
2022-08-18T02:28:03.080Z,0.00
2022-08-18T02:29:03.282Z,0.00
2022-08-18T02:30:03.420Z,0.00
2022-08-18T02:31:03.422Z,0.00
2022-08-18T02:32:02.501Z,0.00
2022-08-18T02:33:02.497Z,0.00
2022-08-18T02:34:02.475Z,0.00
2022-08-18T02:35:02.478Z,0.00
2022-08-18T02:36:02.643Z,0.00
2022-08-18T02:37:03.076Z,0.00
2022-08-18T02:38:03.141Z,0.00
2022-08-18T02:39:02.746Z,0.00
2022-08-18T02:40:03.372Z,0.00
2022-08-18T02:41:02.822Z,0.00
2022-08-18T02:42:03.030Z,0.00
2022-08-18T02:43:03.013Z,0.00
2022-08-18T02:44:03.003Z,0.00
2022-08-18T02:45:03.063Z,0.00
2022-08-18T02:46:03.053Z,0.00
2022-08-18T02:47:03.032Z,0.00
2022-08-18T02:48:03.117Z,0.00
2022-08-18T02:49:03.602Z,0.00
2022-08-18T02:50:03.342Z,0.00
2022-08-18T02:51:03.399Z,0.00
2022-08-18T02:52:02.338Z,0.00
2022-08-18T02:53:02.296Z,0.00
2022-08-18T02:54:02.289Z,0.00
2022-08-18T02:55:02.761Z,0.00
2022-08-18T02:56:02.771Z,0.00
2022-08-18T02:57:02.814Z,0.00
2022-08-18T02:58:02.772Z,0.00
2022-08-18T02:59:02.780Z,0.00
2022-08-18T03:00:03.282Z,0.00
2022-08-18T03:01:03.246Z,0.00
2022-08-18T03:02:02.917Z,0.00
2022-08-18T03:03:02.894Z,0.00
2022-08-18T03:04:02.870Z,0.00
2022-08-18T03:05:03.537Z,0.00
2022-08-18T03:06:03.234Z,0.00
2022-08-18T03:07:03.250Z,0.00
2022-08-18T03:08:03.253Z,0.00
2022-08-18T03:09:03.221Z,0.00
2022-08-18T03:10:31.891Z,0.00
2022-08-18T03:11:03.292Z,0.00
2022-08-18T03:12:03.339Z,0.00
2022-08-18T03:13:03.408Z,0.00
2022-08-18T03:14:03.558Z,0.00
2022-08-18T03:15:03.821Z,0.00
2022-08-18T03:16:03.576Z,0.00
2022-08-18T03:17:02.682Z,0.00
2022-08-18T03:18:02.772Z,0.00
2022-08-18T03:19:03.052Z,0.00
2022-08-18T03:20:03.117Z,0.00
2022-08-18T03:21:02.515Z,0.00
2022-08-18T03:22:03.651Z,0.00
2022-08-18T03:23:05.779Z,0.00
2022-08-18T03:24:03.066Z,0.00
2022-08-18T03:25:03.709Z,0.00
2022-08-18T03:26:03.496Z,0.00
2022-08-18T03:27:03.508Z,0.00
2022-08-18T03:28:03.516Z,0.00
2022-08-18T03:29:03.749Z,0.00
2022-08-18T03:30:03.669Z,0.00
2022-08-18T03:31:03.887Z,0.00
2022-08-18T03:32:03.028Z,0.00
2022-08-18T03:33:03.241Z,0.00
2022-08-18T03:34:03.271Z,0.00
2022-08-18T03:35:03.320Z,0.00
2022-08-18T03:36:03.369Z,0.00
2022-08-18T03:37:03.860Z,0.00
2022-08-18T03:38:04.254Z,0.00
2022-08-18T03:39:03.413Z,0.00
2022-08-18T03:40:03.570Z,0.00
2022-08-18T03:41:03.412Z,0.00
2022-08-18T03:42:03.416Z,0.00
2022-08-18T03:43:03.303Z,0.00
2022-08-18T03:44:03.247Z,0.00
2022-08-18T03:45:13.439Z,0.00
2022-08-18T03:46:03.389Z,0.00
2022-08-18T03:47:03.367Z,0.00
2022-08-18T03:48:03.475Z,0.00
2022-08-18T03:49:03.479Z,0.00
2022-08-18T03:50:03.499Z,0.00
2022-08-18T03:51:05.362Z,0.00
2022-08-18T03:52:02.928Z,0.00
2022-08-18T03:53:02.744Z,0.00
2022-08-18T03:54:03.064Z,4.00
2022-08-18T03:55:03.075Z,4.00
2022-08-18T03:56:03.199Z,4.00
2022-08-18T03:57:03.197Z,4.00
2022-08-18T03:58:03.202Z,0.00
2022-08-18T03:59:02.905Z,4.00
2022-08-18T04:00:03.495Z,4.00
2022-08-18T04:01:03.624Z,4.00
2022-08-18T04:02:03.336Z,8.00
2022-08-18T04:03:03.265Z,8.00
2022-08-18T04:04:03.382Z,8.00
2022-08-18T04:05:03.499Z,8.00
2022-08-18T04:06:03.347Z,12.00
2022-08-18T04:07:03.406Z,12.00
2022-08-18T04:08:03.208Z,16.00
2022-08-18T04:09:03.624Z,16.00
2022-08-18T04:10:03.259Z,20.00
2022-08-18T04:11:03.309Z,24.00
2022-08-18T04:12:03.107Z,24.00
2022-08-18T04:13:02.962Z,28.00
2022-08-18T04:14:02.780Z,40.00
2022-08-18T04:15:02.840Z,44.00
2022-08-18T04:16:02.909Z,48.00
2022-08-18T04:17:02.778Z,56.00
2022-08-18T04:18:03.688Z,60.00
2022-08-18T04:19:02.765Z,68.00
2022-08-18T04:20:02.867Z,80.00
2022-08-18T04:21:02.620Z,84.00
2022-08-18T04:22:03.433Z,100.00
2022-08-18T04:23:03.483Z,108.00
2022-08-18T04:24:03.406Z,116.00
2022-08-18T04:25:03.605Z,124.00
2022-08-18T04:26:03.137Z,124.00
2022-08-18T04:27:03.035Z,132.00
2022-08-18T04:28:02.490Z,140.00
2022-08-18T04:29:02.687Z,152.00
2022-08-18T04:30:02.934Z,172.00
2022-08-18T04:31:02.947Z,188.00
2022-08-18T04:32:03.037Z,204.00
2022-08-18T04:33:03.115Z,220.00
2022-08-18T04:34:02.515Z,240.00
2022-08-18T04:35:03.255Z,252.00
2022-08-18T04:36:03.128Z,264.00
2022-08-18T04:37:03.294Z,280.00
2022-08-18T04:38:03.408Z,296.00
2022-08-18T04:39:02.939Z,308.00
2022-08-18T04:40:03.226Z,320.00
2022-08-18T04:41:03.043Z,328.00
2022-08-18T04:42:03.964Z,352.00
2022-08-18T04:43:03.505Z,372.00
2022-08-18T04:44:03.612Z,392.00
2022-08-18T04:45:03.806Z,424.00
2022-08-18T04:46:03.833Z,448.00
2022-08-18T04:47:03.501Z,460.00
2022-08-18T04:48:02.457Z,476.00
2022-08-18T04:49:02.737Z,496.00
2022-08-18T04:50:03.088Z,520.00
2022-08-18T04:51:02.956Z,520.00
2022-08-18T04:52:34.276Z,504.00
2022-08-18T04:53:03.598Z,480.00
2022-08-18T04:54:03.712Z,452.00
2022-08-18T04:55:03.213Z,436.00
2022-08-18T04:56:03.457Z,424.00
2022-08-18T04:57:03.718Z,432.00
2022-08-18T04:58:03.505Z,448.00
2022-08-18T04:59:03.841Z,476.00
2022-08-18T05:00:03.520Z,508.00
2022-08-18T05:01:03.332Z,552.00
2022-08-18T05:02:02.589Z,624.00
2022-08-18T05:03:02.706Z,696.00
2022-08-18T05:04:02.899Z,780.00
2022-08-18T05:05:03.022Z,868.00
2022-08-18T05:06:02.667Z,928.00
2022-08-18T05:07:01.858Z,976.00
2022-08-18T05:08:01.985Z,1004.00
2022-08-18T05:09:02.210Z,1028.00
2022-08-18T05:10:02.246Z,1036.00
2022-08-18T05:11:04.261Z,1028.00
2022-08-18T05:12:02.270Z,1012.00
2022-08-18T05:13:02.424Z,992.00
2022-08-18T05:14:02.498Z,976.00
2022-08-18T05:15:02.559Z,972.00
2022-08-18T05:16:10.896Z,1008.00
2022-08-18T05:17:02.784Z,1068.00
2022-08-18T05:18:03.265Z,1096.00
2022-08-18T05:19:03.364Z,1140.00
2022-08-18T05:20:03.447Z,1200.00
2022-08-18T05:21:03.296Z,1212.00
2022-08-18T05:22:03.020Z,1180.00
2022-08-18T05:23:02.450Z,1220.00
2022-08-18T05:24:02.559Z,1280.00
2022-08-18T05:25:02.763Z,1248.00
2022-08-18T05:26:03.010Z,1152.00
2022-08-18T05:27:02.883Z,1128.00
2022-08-18T05:28:02.969Z,1100.00
2022-08-18T05:29:17.597Z,1104.00
2022-08-18T05:30:03.178Z,1204.00
2022-08-18T05:31:03.275Z,1348.00
2022-08-18T05:32:02.830Z,1436.00
2022-08-18T05:33:02.577Z,1424.00
2022-08-18T05:34:02.808Z,1472.00
2022-08-18T05:35:02.987Z,1624.00
2022-08-18T05:36:02.875Z,1824.00
2022-08-18T05:37:02.989Z,1996.00
2022-08-18T05:38:03.144Z,2104.00
2022-08-18T05:39:03.641Z,2224.00
2022-08-18T05:40:08.912Z,2324.00
2022-08-18T05:41:03.559Z,2452.00
2022-08-18T05:42:02.480Z,2576.00
2022-08-18T05:43:02.896Z,2748.00
2022-08-18T05:44:02.698Z,2908.00
2022-08-18T05:45:02.900Z,3008.00
2022-08-18T05:46:02.889Z,3072.00
2022-08-18T05:47:03.035Z,3120.00
2022-08-18T05:48:03.665Z,3148.00
2022-08-18T05:49:02.921Z,3164.00
2022-08-18T05:50:03.369Z,3172.00
2022-08-18T05:51:03.125Z,3196.00
2022-08-18T05:52:02.488Z,3228.00
2022-08-18T05:53:02.612Z,3244.00
2022-08-18T05:54:02.583Z,3244.00
2022-08-18T05:55:02.479Z,3216.00
2022-08-18T05:56:02.220Z,3256.00
2022-08-18T05:57:02.465Z,3364.00
2022-08-18T05:58:02.741Z,3496.00
2022-08-18T05:59:02.267Z,3552.00
2022-08-18T06:00:02.834Z,3552.00
2022-08-18T06:01:02.620Z,3524.00
2022-08-18T06:02:02.823Z,3496.00
2022-08-18T06:03:03.222Z,3536.00
2022-08-18T06:04:03.158Z,3636.00
2022-08-18T06:05:03.213Z,3704.00
2022-08-18T06:06:03.150Z,3740.00
2022-08-18T06:07:02.739Z,3764.00
2022-08-18T06:08:02.660Z,3768.00
2022-08-18T06:09:02.580Z,3760.00
2022-08-18T06:10:02.666Z,3768.00
2022-08-18T06:11:02.703Z,3776.00
2022-08-18T06:12:02.468Z,3780.00
2022-08-18T06:13:02.676Z,3808.00
2022-08-18T06:14:02.870Z,3864.00
2022-08-18T06:15:05.875Z,3920.00
2022-08-18T06:16:02.605Z,3976.00
2022-08-18T06:17:02.868Z,4028.00
2022-08-18T06:18:02.734Z,4064.00
2022-08-18T06:19:03.031Z,4092.00
2022-08-18T06:20:02.967Z,4108.00
2022-08-18T06:21:02.973Z,4136.00
2022-08-18T06:22:01.794Z,4164.00
2022-08-18T06:23:02.312Z,4208.00
2022-08-18T06:24:01.953Z,4256.00
2022-08-18T06:25:01.984Z,4312.00
2022-08-18T06:26:02.057Z,4372.00
2022-08-18T06:27:02.802Z,4440.00
2022-08-18T06:28:02.997Z,4508.00
2022-08-18T06:29:03.085Z,4552.00
2022-08-18T06:30:02.940Z,4592.00
2022-08-18T06:31:02.484Z,4612.00
2022-08-18T06:32:02.376Z,4592.00
2022-08-18T06:33:02.550Z,4604.00
2022-08-18T06:34:02.590Z,4660.00
2022-08-18T06:35:02.020Z,4672.00
2022-08-18T06:36:02.609Z,4608.00
2022-08-18T06:37:02.546Z,4500.00
2022-08-18T06:38:02.732Z,4428.00
2022-08-18T06:39:02.283Z,4312.00
2022-08-18T06:40:02.274Z,4120.00
2022-08-18T06:41:02.378Z,3944.00
2022-08-18T06:42:03.104Z,3828.00
2022-08-18T06:43:03.269Z,3816.00
2022-08-18T06:44:02.751Z,3860.00
2022-08-18T06:45:02.734Z,3696.00
2022-08-18T06:46:02.788Z,3428.00
2022-08-18T06:47:02.711Z,3216.00
2022-08-18T06:48:02.862Z,2964.00
2022-08-18T06:49:02.868Z,2752.00
2022-08-18T06:50:02.787Z,2708.00
2022-08-18T06:51:02.303Z,2704.00
2022-08-18T06:52:03.417Z,2756.00
2022-08-18T06:53:02.705Z,2836.00
2022-08-18T06:54:02.944Z,2980.00
2022-08-18T06:55:03.121Z,3164.00
2022-08-18T06:56:03.321Z,3188.00
2022-08-18T06:57:03.200Z,3068.00
2022-08-18T06:58:02.804Z,3124.00
2022-08-18T06:59:02.740Z,3028.00
2022-08-18T07:00:03.141Z,2956.00
2022-08-18T07:01:03.229Z,2924.00
2022-08-18T07:02:02.129Z,2932.00
2022-08-18T07:03:02.088Z,2964.00
2022-08-18T07:04:02.566Z,3028.00
2022-08-18T07:05:02.075Z,3116.00
2022-08-18T07:06:02.157Z,3228.00
2022-08-18T07:07:02.577Z,3424.00
2022-08-18T07:08:03.087Z,3504.00
2022-08-18T07:09:02.789Z,3772.00
2022-08-18T07:10:02.634Z,3916.00
2022-08-18T07:11:02.677Z,3740.00
2022-08-18T07:12:02.558Z,3720.00
2022-08-18T07:13:02.399Z,3784.00
2022-08-18T07:14:16.079Z,3656.00
2022-08-18T07:15:02.096Z,3724.00
2022-08-18T07:16:02.126Z,3820.00
2022-08-18T07:17:03.039Z,3920.00
2022-08-18T07:18:02.733Z,4108.00
2022-08-18T07:19:03.248Z,4248.00
2022-08-18T07:20:03.239Z,4552.00
2022-08-18T07:21:02.668Z,4560.00
2022-08-18T07:22:02.246Z,4284.00
2022-08-18T07:23:02.402Z,4184.00
2022-08-18T07:24:23.679Z,3996.00
2022-08-18T07:25:05.300Z,3880.00
2022-08-18T07:26:02.278Z,4132.00
2022-08-18T07:27:03.084Z,4608.00
2022-08-18T07:28:03.095Z,4632.00
2022-08-18T07:29:02.610Z,4108.00
2022-08-18T07:30:03.119Z,3740.00
2022-08-18T07:31:16.314Z,3568.00
2022-08-18T07:32:02.826Z,3664.00
2022-08-18T07:33:02.301Z,3912.00
2022-08-18T07:34:02.815Z,3972.00
2022-08-18T07:35:02.409Z,4276.00
2022-08-18T07:36:02.411Z,4232.00
2022-08-18T07:37:03.056Z,4024.00
2022-08-18T07:38:18.729Z,3976.00
2022-08-18T07:39:02.583Z,4020.00
2022-08-18T07:40:02.786Z,4036.00
2022-08-18T07:41:02.990Z,4132.00
2022-08-18T07:42:02.962Z,4264.00
2022-08-18T07:43:02.917Z,4076.00
2022-08-18T07:44:02.663Z,4136.00
2022-08-18T07:45:02.871Z,4084.00
2022-08-18T07:46:02.575Z,4116.00
2022-08-18T07:47:02.607Z,4064.00
2022-08-18T07:48:15.818Z,3876.00
2022-08-18T07:49:05.432Z,3588.00
2022-08-18T07:50:36.255Z,3236.00
2022-08-18T07:51:06.653Z,3136.00
2022-08-18T07:52:02.930Z,3172.00
2022-08-18T07:53:02.944Z,3236.00
2022-08-18T07:54:02.605Z,3308.00
2022-08-18T07:55:02.958Z,3392.00
2022-08-18T07:56:02.886Z,3424.00
2022-08-18T07:57:02.940Z,3556.00
2022-08-18T07:58:03.049Z,3652.00
2022-08-18T07:59:02.728Z,3748.00
2022-08-18T08:00:03.243Z,4392.00
2022-08-18T08:01:03.090Z,5796.00
2022-08-18T08:02:02.178Z,6920.00
2022-08-18T08:03:02.462Z,7420.00
2022-08-18T08:04:02.165Z,7160.00
2022-08-18T08:05:02.274Z,6812.00
2022-08-18T08:06:02.132Z,6716.00
2022-08-18T08:07:23.483Z,6632.00
2022-08-18T08:08:02.793Z,6600.00
2022-08-18T08:09:02.959Z,7012.00
2022-08-18T08:10:02.763Z,7300.00
2022-08-18T08:11:02.903Z,7272.00
2022-08-18T08:12:02.955Z,7144.00
2022-08-18T08:13:09.270Z,7072.00
2022-08-18T08:14:03.091Z,6688.00
2022-08-18T08:15:02.958Z,6660.00
2022-08-18T08:16:03.315Z,6388.00
2022-08-18T08:17:02.692Z,5956.00
2022-08-18T08:18:02.698Z,5684.00
2022-08-18T08:19:02.797Z,5848.00
2022-08-18T08:20:03.071Z,5792.00
2022-08-18T08:21:02.886Z,5508.00
2022-08-18T08:22:02.659Z,4976.00
2022-08-18T08:23:02.854Z,4600.00
2022-08-18T08:24:03.049Z,4152.00
2022-08-18T08:25:02.695Z,3888.00
2022-08-18T08:26:02.625Z,4012.00
2022-08-18T08:27:03.453Z,4052.00
2022-08-18T08:28:02.981Z,4064.00
2022-08-18T08:29:03.144Z,3908.00
2022-08-18T08:30:03.251Z,4096.00
2022-08-18T08:31:25.861Z,4424.00
2022-08-18T08:32:02.526Z,4680.00
2022-08-18T08:33:02.853Z,4656.00
2022-08-18T08:34:05.981Z,4588.00
2022-08-18T08:35:02.939Z,4584.00
2022-08-18T08:36:02.637Z,4700.00
2022-08-18T08:37:03.122Z,4712.00
2022-08-18T08:38:23.014Z,4520.00
2022-08-18T08:39:03.385Z,4640.00
2022-08-18T08:40:03.452Z,4868.00
2022-08-18T08:41:03.144Z,5384.00
2022-08-18T08:42:30.214Z,6324.00
2022-08-18T08:43:02.690Z,7164.00
2022-08-18T08:44:02.765Z,7680.00
2022-08-18T08:45:03.116Z,8036.00
2022-08-18T08:46:02.901Z,8668.00
2022-08-18T08:47:03.231Z,9016.00
2022-08-18T08:48:08.930Z,9628.00
2022-08-18T08:49:03.184Z,10100.00
2022-08-18T08:50:03.356Z,10088.00
2022-08-18T08:51:03.325Z,9752.00
2022-08-18T08:52:03.098Z,9272.00
2022-08-18T08:53:03.133Z,8888.00
2022-08-18T08:54:02.828Z,8784.00
2022-08-18T08:55:03.341Z,8828.00
2022-08-18T08:56:03.228Z,9128.00
2022-08-18T08:57:03.391Z,9460.00
2022-08-18T08:58:02.979Z,10044.00
2022-08-18T08:59:03.433Z,10628.00
2022-08-18T09:00:03.153Z,11084.00
2022-08-18T09:01:02.966Z,11428.00
2022-08-18T09:02:02.396Z,11220.00
2022-08-18T09:03:02.452Z,10736.00
2022-08-18T09:04:02.677Z,10372.00
2022-08-18T09:05:08.466Z,9940.00
2022-08-18T09:06:02.348Z,9880.00
2022-08-18T09:07:02.476Z,9340.00
2022-08-18T09:08:02.174Z,7904.00
2022-08-18T09:09:02.410Z,6852.00
2022-08-18T09:10:02.758Z,6576.00
2022-08-18T09:11:02.163Z,7076.00
2022-08-18T09:12:02.857Z,7348.00
2022-08-18T09:13:02.381Z,7492.00
2022-08-18T09:14:02.388Z,7720.00
2022-08-18T09:15:02.898Z,8152.00
2022-08-18T09:16:02.488Z,7860.00
2022-08-18T09:17:02.944Z,6796.00
2022-08-18T09:18:03.084Z,5824.00
2022-08-18T09:19:02.978Z,5092.00
2022-08-18T09:20:03.044Z,4792.00
2022-08-18T09:21:02.983Z,4680.00
2022-08-18T09:22:03.145Z,4624.00
2022-08-18T09:23:03.327Z,4456.00
2022-08-18T09:24:03.429Z,4236.00
2022-08-18T09:25:03.191Z,4028.00
2022-08-18T09:26:03.585Z,3904.00
2022-08-18T09:27:02.497Z,3852.00
2022-08-18T09:28:11.313Z,3856.00
2022-08-18T09:29:02.596Z,3876.00
2022-08-18T09:30:02.998Z,3828.00
2022-08-18T09:31:02.638Z,3708.00
2022-08-18T09:32:02.505Z,3496.00
2022-08-18T09:33:02.972Z,3296.00
2022-08-18T09:34:09.722Z,3116.00
2022-08-18T09:35:02.842Z,2944.00
2022-08-18T09:36:02.708Z,2808.00
2022-08-18T09:37:02.967Z,2728.00
2022-08-18T09:38:03.166Z,2696.00
2022-08-18T09:39:03.052Z,2700.00
2022-08-18T09:40:10.896Z,2736.00
2022-08-18T09:41:03.911Z,2808.00
2022-08-18T09:42:03.196Z,2916.00
2022-08-18T09:43:02.736Z,3044.00
2022-08-18T09:44:02.256Z,3200.00
2022-08-18T09:45:02.727Z,3356.00
2022-08-18T09:46:02.557Z,3580.00
2022-08-18T09:47:03.043Z,3740.00
2022-08-18T09:48:03.040Z,3852.00
2022-08-18T09:49:03.059Z,3828.00
2022-08-18T09:50:03.054Z,3840.00
2022-08-18T09:51:03.179Z,3848.00
2022-08-18T09:52:03.083Z,3908.00
2022-08-18T09:53:04.653Z,4056.00
2022-08-18T09:54:03.116Z,4196.00
2022-08-18T09:55:03.239Z,4328.00
2022-08-18T09:57:02.678Z,4684.00
2022-08-18T09:58:02.565Z,4980.00
2022-08-18T10:00:02.922Z,5828.00
2022-08-18T10:01:02.803Z,6524.00
2022-08-18T10:02:02.627Z,7268.00
2022-08-18T10:03:02.469Z,8052.00
2022-08-18T10:04:02.568Z,8936.00
2022-08-18T10:05:02.832Z,10156.00
2022-08-18T10:06:03.124Z,11608.00
2022-08-18T10:07:02.451Z,13208.00
2022-08-18T10:09:02.572Z,14412.00
2022-08-18T10:10:02.093Z,13948.00
2022-08-18T10:11:09.090Z,12892.00
2022-08-18T10:12:02.820Z,11920.00
2022-08-18T10:13:02.377Z,11100.00
2022-08-18T10:14:02.842Z,10692.00
2022-08-18T10:15:02.696Z,10740.00
2022-08-18T10:16:10.808Z,10952.00
2022-08-18T10:17:23.376Z,11236.00
2022-08-18T10:18:02.113Z,11756.00
2022-08-18T10:19:02.269Z,12580.00
2022-08-18T10:20:02.549Z,12828.00
2022-08-18T10:21:01.907Z,13232.00
2022-08-18T10:22:02.547Z,13956.00
2022-08-18T10:23:02.525Z,14632.00
2022-08-18T10:25:20.814Z,14440.00
2022-08-18T10:26:04.724Z,14084.00
2022-08-18T10:27:02.694Z,14256.00
2022-08-18T10:28:02.611Z,15360.00
2022-08-18T10:29:02.601Z,16096.00
2022-08-18T10:30:02.512Z,16576.00
2022-08-18T10:31:06.189Z,16896.00
2022-08-18T10:32:03.045Z,17632.00
2022-08-18T10:33:15.143Z,18176.00
2022-08-18T10:34:12.104Z,19168.00
2022-08-18T10:35:02.643Z,19840.00
2022-08-18T10:36:03.167Z,19680.00
2022-08-18T10:37:02.816Z,19520.00
2022-08-18T10:38:02.233Z,19328.00
2022-08-18T10:39:02.193Z,19040.00
2022-08-18T10:40:02.864Z,19136.00
2022-08-18T10:42:03.162Z,18656.00
2022-08-18T10:43:10.666Z,18496.00
2022-08-18T10:44:15.371Z,18272.00
2022-08-18T10:45:02.881Z,17728.00
2022-08-18T10:47:03.588Z,16064.00
2022-08-18T10:48:03.137Z,14636.00
2022-08-18T10:50:03.098Z,12848.00
2022-08-18T10:51:04.514Z,12860.00
2022-08-18T10:52:03.132Z,13332.00
2022-08-18T10:53:35.227Z,13444.00
2022-08-18T10:54:02.905Z,12500.00
2022-08-18T10:55:02.894Z,11608.00
2022-08-18T10:56:05.169Z,11192.00
2022-08-18T10:57:02.636Z,11176.00
2022-08-18T10:58:02.865Z,11468.00
2022-08-18T10:59:02.781Z,11892.00
2022-08-18T11:00:03.143Z,12468.00
2022-08-18T11:01:02.814Z,12660.00
2022-08-18T11:02:02.669Z,12436.00
2022-08-18T11:03:30.029Z,12272.00
2022-08-18T11:04:11.697Z,12024.00
2022-08-18T11:05:03.144Z,11608.00
2022-08-18T11:06:03.574Z,11256.00
2022-08-18T11:07:02.911Z,11128.00
2022-08-18T11:08:02.527Z,11196.00
2022-08-18T11:09:02.346Z,11472.00
2022-08-18T11:10:28.235Z,11428.00
2022-08-18T11:11:34.086Z,11320.00
2022-08-18T11:12:02.436Z,11320.00
2022-08-18T11:13:08.868Z,11572.00
2022-08-18T11:14:02.654Z,12100.00
2022-08-18T11:15:23.472Z,12660.00
2022-08-18T11:16:03.026Z,13376.00
2022-08-18T11:17:02.955Z,13880.00
2022-08-18T11:18:02.432Z,14320.00
2022-08-18T11:19:02.143Z,14504.00
2022-08-18T11:20:02.520Z,14504.00
2022-08-18T11:21:02.638Z,13752.00
2022-08-18T11:22:02.489Z,13112.00
2022-08-18T11:23:02.294Z,12716.00
2022-08-18T11:24:02.432Z,12456.00
2022-08-18T11:25:03.226Z,12712.00
2022-08-18T11:26:02.256Z,12672.00
2022-08-18T11:27:02.688Z,12844.00
2022-08-18T11:28:02.906Z,12868.00
2022-08-18T11:29:02.466Z,12916.00
2022-08-18T11:30:03.034Z,13144.00
2022-08-18T11:31:02.694Z,13560.00
2022-08-18T11:32:02.787Z,14508.00
2022-08-18T11:33:03.336Z,15776.00
2022-08-18T11:34:02.326Z,16928.00
2022-08-18T11:35:02.555Z,18176.00
2022-08-18T11:36:02.792Z,18080.00
2022-08-18T11:37:02.880Z,17888.00
2022-08-18T11:38:02.300Z,17760.00
2022-08-18T11:39:02.483Z,18048.00
2022-08-18T11:40:02.828Z,18560.00
2022-08-18T11:41:09.126Z,19104.00
2022-08-18T11:42:02.856Z,19104.00
2022-08-18T11:43:02.680Z,19424.00
2022-08-18T11:44:02.950Z,20128.00
2022-08-18T11:45:02.804Z,20800.00
2022-08-18T11:46:02.870Z,21312.00
2022-08-18T11:47:02.469Z,21152.00
2022-08-18T11:48:03.478Z,20800.00
2022-08-18T11:49:04.484Z,19936.00
2022-08-18T11:50:04.426Z,18816.00
2022-08-18T11:51:03.215Z,18912.00
2022-08-18T11:52:03.744Z,19008.00
2022-08-18T11:53:03.753Z,19168.00
2022-08-18T11:54:03.376Z,20288.00
2022-08-18T11:55:16.834Z,21312.00
2022-08-18T11:56:03.806Z,24032.00
2022-08-18T11:57:03.712Z,20704.00
2022-08-18T11:58:02.411Z,20128.00
2022-08-18T11:59:02.923Z,21024.00
2022-08-18T12:00:02.926Z,21280.00
2022-08-18T12:01:03.435Z,21920.00
2022-08-18T12:02:02.826Z,18624.00
2022-08-18T12:03:02.620Z,18464.00
2022-08-18T12:04:02.674Z,18432.00
2022-08-18T12:05:03.208Z,16512.00
2022-08-18T12:06:03.019Z,14556.00
2022-08-18T12:07:04.466Z,14064.00
2022-08-18T12:08:06.355Z,14068.00
2022-08-18T12:09:02.524Z,14448.00
2022-08-18T12:10:17.888Z,15172.00
2022-08-18T12:11:02.942Z,15616.00
2022-08-18T12:12:02.564Z,15036.00
2022-08-18T12:13:02.126Z,14384.00
2022-08-18T12:14:30.163Z,13840.00
2022-08-18T12:16:02.010Z,13172.00
2022-08-18T12:17:02.092Z,13032.00
2022-08-18T12:18:02.904Z,12856.00
2022-08-18T12:19:03.091Z,12712.00
2022-08-18T12:20:02.996Z,12808.00
2022-08-18T12:21:03.251Z,13124.00
2022-08-18T12:23:02.080Z,13836.00
2022-08-18T12:24:02.563Z,14204.00
2022-08-18T12:25:01.902Z,14784.00
2022-08-18T12:26:02.221Z,15744.00
2022-08-18T12:27:02.307Z,16768.00
2022-08-18T12:28:02.660Z,17824.00
2022-08-18T12:29:03.026Z,18720.00
2022-08-18T12:30:02.884Z,19168.00
2022-08-18T12:31:03.020Z,19328.00
2022-08-18T12:32:02.518Z,19264.00
2022-08-18T12:33:05.845Z,19008.00
2022-08-18T12:34:02.711Z,18624.00